Time;durP1;ratioP1;P1;durP2;ratioP2;P2;SDS_P1;SDS_P2;PMS_P1;PMS_P2;Temp;Humidity;BMP_temperature;BMP_pressure;BME280_temperature;BME280_humidity;BME280_pressure;Samples;Min_cycle;Max_cycle;Signal;HPM_P1;HPM_P2
2021/12/21 00:02:11;;;;;;;2.42;1.65;;;15.50;42.60;14.50;102412.00;;;;5041407;28;20386;-67
2021/12/21 00:04:57;;;;;;;1.85;1.67;;;15.50;42.60;14.50;102409.00;;;;5046700;28;20040;-67
2021/12/21 00:07:44;;;;;;;1.58;1.45;;;15.50;42.60;14.50;102409.00;;;;5046278;28;20474;-67
2021/12/21 00:10:32;;;;;;;2.13;1.77;;;15.50;42.60;14.50;102401.00;;;;5028322;28;20041;-66
2021/12/21 00:13:40;;;;;;;2.13;1.77;;;15.50;42.60;14.50;102399.00;;;;5033587;28;20283;-67
2021/12/21 00:22:58;;;;;;;2.05;1.85;;;15.50;42.60;14.40;102400.00;;;;5048009;28;20037;-67
2021/12/21 00:25:33;;;;;;;1.88;1.60;;;15.50;42.60;14.40;102410.00;;;;5046084;28;20482;-67
2021/12/21 00:28:19;;;;;;;1.80;1.70;;;15.50;42.60;14.40;102405.00;;;;5049939;28;20048;-67
2021/12/21 00:31:05;;;;;;;3.33;1.90;;;15.50;42.50;14.50;102410.00;;;;5050176;28;20044;-67
2021/12/21 00:33:51;;;;;;;1.80;1.70;;;15.50;42.60;14.40;102409.00;;;;5044137;28;20055;-67
2021/12/21 00:36:38;;;;;;;1.52;1.42;;;15.50;42.50;14.40;102403.00;;;;5050200;28;20048;-67
2021/12/21 00:39:24;;;;;;;1.73;1.63;;;15.50;42.50;14.40;102407.00;;;;5046452;28;20118;-67
2021/12/21 00:42:10;;;;;;;1.58;1.48;;;15.50;42.50;14.40;102402.00;;;;5045866;28;20044;-67
2021/12/21 00:44:56;;;;;;;1.80;1.60;;;15.50;42.50;14.40;102402.00;;;;5048177;28;20036;-67
2021/12/21 00:47:47;;;;;;;1.42;1.33;;;15.50;43.20;14.40;102395.00;;;;5045959;28;20037;-67
2021/12/21 00:50:34;;;;;;;1.75;1.65;;;15.50;42.40;14.40;102401.00;;;;5050082;28;20471;-67
2021/12/21 00:53:20;;;;;;;1.77;1.60;;;15.50;42.40;14.40;102402.00;;;;5047236;28;20045;-67
2021/12/21 00:56:06;;;;;;;1.85;1.63;;;15.50;42.40;14.40;102399.00;;;;5026612;28;20128;-66
2021/12/21 00:58:52;;;;;;;1.83;1.48;;;15.40;42.40;14.40;102397.00;;;;5030586;28;20107;-67
2021/12/21 01:01:42;;;;;;;2.00;1.65;;;15.50;42.40;14.40;102391.00;;;;5046727;28;20041;-67
2021/12/21 01:04:35;;;;;;;1.70;1.60;;;15.50;42.40;14.40;102396.00;;;;5018174;28;20076;-66
2021/12/21 01:07:29;;;;;;;1.83;1.73;;;15.40;42.30;14.40;102398.00;;;;5047288;28;20032;-66
2021/12/21 01:13:38;;;;;;;2.67;1.52;;;15.50;42.40;14.40;102391.00;;;;5034726;28;20059;-67
2021/12/21 01:19:17;;;;;;;1.75;1.65;;;15.40;42.40;14.40;102390.00;;;;5030442;28;20033;-67
2021/12/21 01:27:54;;;;;;;2.35;1.80;;;15.40;42.40;14.40;102387.00;;;;5040678;28;20033;-67
2021/12/21 01:34:09;;;;;;;1.95;1.73;;;15.40;42.30;14.40;102390.00;;;;5024339;28;20037;-67
2021/12/21 01:37:06;;;;;;;2.08;1.65;;;15.40;42.30;14.40;102384.00;;;;5018757;28;20347;-67
2021/12/21 01:43:13;;;;;;;1.40;1.30;;;15.40;42.30;14.40;102375.00;;;;5034466;28;20441;-66
2021/12/21 01:52:14;;;;;;;1.48;1.38;;;15.40;42.20;14.40;102386.00;;;;5035049;28;20059;-67
2021/12/21 01:55:00;;;;;;;1.48;1.38;;;15.40;42.20;14.40;102383.00;;;;5029371;28;20098;-67
2021/12/21 01:57:46;;;;;;;1.55;1.45;;;15.40;42.20;14.40;102382.00;;;;5044820;28;20049;-67
2021/12/21 02:00:33;;;;;;;3.15;1.67;;;15.40;42.20;14.40;102378.00;;;;5045340;28;20069;-67
2021/12/21 02:03:19;;;;;;;1.50;1.30;;;15.40;42.20;14.40;102376.00;;;;5046454;28;20090;-66
2021/12/21 02:06:05;;;;;;;2.13;1.60;;;15.40;42.20;14.40;102377.00;;;;5044553;28;20322;-66
2021/12/21 02:08:52;;;;;;;1.70;1.60;;;15.40;42.20;14.40;102375.00;;;;5030644;28;20041;-66
2021/12/21 02:11:38;;;;;;;1.60;1.50;;;15.40;42.10;14.40;102378.00;;;;5027682;28;20037;-67
2021/12/21 02:14:24;;;;;;;1.88;1.73;;;15.40;42.10;14.40;102373.00;;;;5044623;28;20669;-67
2021/12/21 02:23:19;;;;;;;2.10;1.90;;;15.40;42.10;14.40;102371.00;;;;5017404;28;20025;-67
2021/12/21 02:29:36;;;;;;;2.20;1.77;;;15.40;42.10;14.30;102369.00;;;;5018250;28;20044;-67
2021/12/21 02:32:22;;;;;;;1.80;1.63;;;15.40;42.00;14.30;102370.00;;;;5043265;28;20387;-67
2021/12/21 02:35:09;;;;;;;2.05;1.88;;;15.40;42.10;14.30;102362.00;;;;5043264;28;20037;-67
2021/12/21 02:37:55;;;;;;;1.90;1.80;;;15.40;42.00;14.30;102367.00;;;;5028734;28;20183;-67
2021/12/21 02:40:41;;;;;;;2.30;1.85;;;15.40;42.00;14.30;102359.00;;;;5043415;28;20045;-67
2021/12/21 02:43:28;;;;;;;2.17;1.77;;;15.40;42.00;14.30;102359.00;;;;5042563;28;20075;-67
2021/12/21 02:46:14;;;;;;;2.00;1.80;;;15.40;42.00;14.30;102345.00;;;;5029011;28;20391;-66
2021/12/21 02:49:00;;;;;;;1.85;1.75;;;15.40;42.00;14.30;102351.00;;;;5025751;28;20589;-67
2021/12/21 02:51:47;;;;;;;1.98;1.80;;;15.40;42.00;14.30;102351.00;;;;5044022;28;20033;-67
2021/12/21 02:54:33;;;;;;;2.08;1.88;;;15.40;42.00;14.30;102354.00;;;;5031375;28;20401;-67
2021/12/21 02:57:19;;;;;;;2.28;1.90;;;15.40;42.00;14.30;102352.00;;;;5043506;28;20056;-67
2021/12/21 03:00:07;;;;;;;1.70;1.60;;;15.40;42.00;14.30;102347.00;;;;5043425;28;20558;-67
2021/12/21 03:02:53;;;;;;;2.47;2.17;;;15.40;41.90;14.30;102352.00;;;;5012965;28;20091;-67
2021/12/21 03:05:46;;;;;;;2.67;2.40;;;15.40;41.90;14.30;102349.00;;;;5030566;28;20048;-67
2021/12/21 03:08:44;;;;;;;1.90;1.70;;;15.40;42.00;14.30;102345.00;;;;5028753;28;20504;-66
2021/12/21 03:11:48;;;;;;;2.20;1.83;;;15.40;41.90;14.30;102347.00;;;;5031553;28;20049;-66
2021/12/21 03:14:34;;;;;;;2.05;1.92;;;15.40;41.90;14.30;102334.00;;;;5042759;28;20492;-67
2021/12/21 03:17:21;;;;;;;2.05;1.88;;;15.30;41.90;14.30;102332.00;;;;5041844;28;20067;-66
2021/12/21 03:20:07;;;;;;;2.08;1.88;;;15.30;41.90;14.30;102338.00;;;;5019920;28;20045;-67
2021/12/21 03:22:54;;;;;;;2.40;2.20;;;15.30;41.80;14.30;102337.00;;;;5041856;28;20079;-66
2021/12/21 03:25:40;;;;;;;1.95;1.75;;;15.30;41.80;14.30;102341.00;;;;5030445;28;20094;-66
2021/12/21 03:28:26;;;;;;;2.20;2.00;;;15.30;41.80;14.30;102339.00;;;;5044554;28;20471;-66
2021/12/21 03:31:12;;;;;;;2.22;2.03;;;15.30;41.80;14.30;102338.00;;;;5027958;28;20489;-66
2021/12/21 03:33:58;;;;;;;1.85;1.70;;;15.30;41.80;14.30;102330.00;;;;5041432;28;20175;-66
2021/12/21 03:36:45;;;;;;;2.42;1.90;;;15.40;41.90;14.30;102334.00;;;;5030457;28;20056;-66
2021/12/21 03:39:31;;;;;;;2.00;1.80;;;15.30;41.80;14.30;102340.00;;;;5019212;28;20059;-66
2021/12/21 03:42:18;;;;;;;2.17;1.98;;;15.30;41.80;14.30;102343.00;;;;5042276;28;20048;-67
2021/12/21 03:45:05;;;;;;;2.35;2.00;;;15.30;41.80;14.30;102332.00;;;;5030063;28;20518;-67
2021/12/21 03:47:51;;;;;;;2.00;1.80;;;15.30;41.80;14.30;102336.00;;;;5029118;28;20107;-67
2021/12/21 03:50:37;;;;;;;2.95;1.95;;;15.30;41.80;14.30;102333.00;;;;5029891;28;20288;-67
2021/12/21 03:53:23;;;;;;;2.70;2.22;;;15.30;41.80;14.30;102334.00;;;;5045133;28;20048;-66
2021/12/21 03:56:37;;;;;;;2.30;2.10;;;15.30;41.80;14.30;102337.00;;;;5046968;28;20409;-66
2021/12/21 03:59:23;;;;;;;3.22;1.85;;;15.30;41.80;14.30;102343.00;;;;5019444;28;20041;-67
2021/12/21 04:02:11;;;;;;;2.30;2.10;;;15.30;41.70;14.30;102321.00;;;;5030229;28;20490;-67
2021/12/21 04:04:59;;;;;;;2.80;1.70;;;15.30;41.70;14.30;102327.00;;;;5030479;28;20103;-67
2021/12/21 04:07:45;;;;;;;2.33;2.13;;;15.30;41.80;14.30;102332.00;;;;5047317;28;20041;-66
2021/12/21 04:10:31;;;;;;;2.13;1.90;;;15.30;41.70;14.30;102329.00;;;;5048506;28;20048;-66
2021/12/21 04:13:17;;;;;;;3.25;2.10;;;15.30;41.70;14.30;102330.00;;;;5046138;28;20526;-67
2021/12/21 04:16:05;;;;;;;2.03;1.90;;;15.30;41.70;14.30;102322.00;;;;5048510;28;20041;-66
2021/12/21 04:18:51;;;;;;;2.72;2.13;;;15.30;41.70;14.20;102333.00;;;;5048700;28;20052;-66
2021/12/21 04:21:37;;;;;;;2.00;1.83;;;15.30;41.70;14.20;102330.00;;;;5046534;28;20498;-67
2021/12/21 04:24:23;;;;;;;2.33;2.00;;;15.30;41.70;14.30;102330.00;;;;5047005;28;20068;-67
2021/12/21 04:27:10;;;;;;;2.20;2.00;;;15.30;41.70;14.30;102327.00;;;;5031075;28;20033;-67
2021/12/21 04:29:56;;;;;;;2.30;2.10;;;15.30;41.70;14.20;102327.00;;;;5047443;28;20036;-67
2021/12/21 04:32:42;;;;;;;3.80;2.03;;;15.30;41.60;14.20;102332.00;;;;5047392;28;20082;-66
2021/12/21 04:35:28;;;;;;;1.98;1.83;;;15.30;42.30;14.20;102325.00;;;;5049732;28;20457;-66
2021/12/21 04:38:22;;;;;;;2.28;2.00;;;15.30;41.70;14.20;102330.00;;;;5030312;28;20536;-67
2021/12/21 04:41:22;;;;;;;2.47;1.90;;;15.30;41.60;14.20;102332.00;;;;5046358;28;20036;-67
2021/12/21 04:44:08;;;;;;;2.00;1.90;;;15.30;41.60;14.20;102323.00;;;;5015019;28;20124;-67
2021/12/21 04:46:54;;;;;;;1.75;1.65;;;15.30;41.60;14.20;102327.00;;;;5046881;28;20463;-67
2021/12/21 04:49:41;;;;;;;2.05;1.85;;;15.30;41.60;14.20;102318.00;;;;5046729;28;20032;-67
2021/12/21 04:52:27;;;;;;;1.92;1.83;;;15.30;41.60;14.20;102316.00;;;;5048761;28;20037;-67
2021/12/21 04:55:14;;;;;;;1.85;1.67;;;15.30;41.60;14.20;102322.00;;;;5047285;28;20410;-67
2021/12/21 04:58:00;;;;;;;1.90;1.80;;;15.30;41.60;14.20;102316.00;;;;5043352;28;20052;-67
2021/12/21 05:00:47;;;;;;;2.47;2.00;;;15.30;41.60;14.20;102325.00;;;;5045100;28;20116;-67
2021/12/21 05:03:33;;;;;;;2.03;1.90;;;15.30;41.60;14.20;102328.00;;;;5019149;28;20041;-67
2021/12/21 05:06:19;;;;;;;2.20;2.00;;;15.30;41.50;14.20;102322.00;;;;5024707;28;20102;-67
2021/12/21 05:09:21;;;;;;;2.33;1.80;;;15.30;41.60;14.20;102314.00;;;;5046658;28;20033;-67
2021/12/21 05:12:11;;;;;;;2.50;2.30;;;15.30;41.60;14.20;102315.00;;;;5047280;28;20159;-66
2021/12/21 05:14:57;;;;;;;2.33;1.95;;;15.30;41.60;14.20;102317.00;;;;5044590;28;20048;-66
2021/12/21 05:17:43;;;;;;;2.25;1.98;;;15.30;41.50;14.20;102320.00;;;;5046232;28;20123;-67
2021/12/21 05:20:29;;;;;;;2.30;1.73;;;15.30;41.50;14.20;102317.00;;;;5044470;28;20044;-66
2021/12/21 05:23:15;;;;;;;1.88;1.52;;;15.30;41.50;14.20;102321.00;;;;5031626;28;20353;-66
2021/12/21 05:26:01;;;;;;;1.65;1.55;;;15.10;41.40;14.20;102327.00;;;;5029991;28;20040;-66
2021/12/21 05:28:48;;;;;;;2.20;1.70;;;15.30;41.50;14.20;102323.00;;;;5048296;28;20044;-67
2021/12/21 05:31:34;;;;;;;2.05;1.77;;;15.30;41.50;14.20;102319.00;;;;5030463;28;20486;-67
2021/12/21 05:34:20;;;;;;;1.70;1.60;;;15.30;41.50;14.20;102318.00;;;;5028462;28;20036;-67
2021/12/21 05:37:07;;;;;;;1.85;1.75;;;15.30;42.20;14.20;102323.00;;;;5044033;28;20040;-66
2021/12/21 05:40:08;;;;;;;1.60;1.47;;;15.30;41.50;14.20;102321.00;;;;5041766;28;20041;-67
2021/12/21 05:42:54;;;;;;;2.05;1.88;;;15.30;41.50;14.20;102322.00;;;;5045783;28;20544;-66
2021/12/21 05:45:41;;;;;;;1.65;1.48;;;15.30;41.40;14.20;102319.00;;;;5042777;28;20049;-66
2021/12/21 05:48:27;;;;;;;2.03;1.88;;;15.30;41.40;14.20;102323.00;;;;5044064;28;20510;-66
2021/12/21 05:51:13;;;;;;;1.63;1.52;;;15.30;41.50;14.20;102325.00;;;;5044568;28;20036;-66
2021/12/21 05:53:59;;;;;;;1.85;1.65;;;15.30;41.50;14.20;102329.00;;;;5045915;28;20426;-66
2021/12/21 05:56:46;;;;;;;1.98;1.73;;;15.30;41.40;14.20;102330.00;;;;5042219;28;20051;-66
2021/12/21 05:59:32;;;;;;;1.88;1.58;;;15.30;41.40;14.20;102323.00;;;;5032352;28;20037;-66
2021/12/21 06:02:18;;;;;;;1.80;1.50;;;15.30;41.40;14.20;102322.00;;;;5045302;28;20036;-66
2021/12/21 06:05:05;;;;;;;2.20;1.80;;;15.30;41.40;14.20;102332.00;;;;5044335;28;20037;-66
2021/12/21 06:07:53;;;;;;;2.45;1.80;;;15.20;41.40;14.20;102324.00;;;;5031581;28;20585;-66
2021/12/21 06:10:41;;;;;;;1.80;1.70;;;15.20;41.30;14.20;102328.00;;;;5040508;28;20649;-66
2021/12/21 06:13:50;;;;;;;1.45;1.35;;;15.20;41.30;14.20;102330.00;;;;5046332;28;20044;-66
2021/12/21 06:25:58;;;;;;;1.90;1.77;;;15.20;41.30;14.10;102332.00;;;;4999661;28;20043;-66
2021/12/21 06:28:47;;;;;;;2.33;2.10;;;15.20;41.30;14.10;102326.00;;;;5031828;28;20037;-66
2021/12/21 06:31:33;;;;;;;2.20;2.00;;;15.20;41.30;14.20;102335.00;;;;5014863;28;20041;-66
2021/12/21 06:34:19;;;;;;;2.83;2.15;;;15.20;41.30;14.10;102332.00;;;;5042706;28;20047;-66
2021/12/21 06:37:06;;;;;;;2.60;2.28;;;15.20;41.20;14.10;102330.00;;;;5015746;28;20961;-66
2021/12/21 06:39:53;;;;;;;2.47;2.22;;;15.20;41.30;14.10;102335.00;;;;5033563;28;20049;-67
2021/12/21 06:42:40;;;;;;;3.95;2.20;;;15.20;41.20;14.10;102334.00;;;;5036413;28;20052;-67
2021/12/21 06:54:18;;;;;;;2.20;2.00;;;15.20;41.20;14.10;102332.00;;;;5035713;28;20475;-66
2021/12/21 06:57:04;;;;;;;2.78;2.30;;;15.20;41.20;14.10;102334.00;;;;5023241;28;20458;-66
2021/12/21 06:59:51;;;;;;;2.53;2.30;;;15.20;41.20;14.10;102337.00;;;;5032985;28;20045;-66
2021/12/21 07:02:38;;;;;;;2.53;2.25;;;15.20;41.20;14.10;102340.00;;;;5031809;28;20474;-66
2021/12/21 07:05:25;;;;;;;2.90;2.13;;;15.20;41.20;14.10;102339.00;;;;5037290;28;20037;-67
2021/12/21 07:08:12;;;;;;;2.40;2.20;;;15.20;41.20;14.10;102335.00;;;;5044853;28;20037;-66
2021/12/21 07:20:14;;;;;;;2.85;2.47;;;15.20;41.20;14.10;102337.00;;;;5041621;28;20467;-66
2021/12/21 07:23:01;;;;;;;2.72;2.50;;;15.20;41.10;14.10;102332.00;;;;5041346;28;20044;-66
2021/12/21 07:25:47;;;;;;;2.25;1.92;;;15.20;41.20;14.10;102333.00;;;;5041358;28;20044;-66
2021/12/21 07:28:33;;;;;;;2.85;2.35;;;15.20;41.10;14.10;102342.00;;;;5044815;28;20040;-66
2021/12/21 07:31:20;;;;;;;2.53;2.33;;;15.10;41.80;14.10;102335.00;;;;5025121;28;20110;-66
2021/12/21 07:34:06;;;;;;;2.45;2.20;;;15.20;41.10;14.10;102335.00;;;;5042604;28;20028;-66
2021/12/21 07:36:52;;;;;;;2.70;2.50;;;15.20;41.10;14.10;102334.00;;;;5047538;28;20060;-66
2021/12/21 07:39:39;;;;;;;2.42;2.22;;;15.20;41.10;14.10;102342.00;;;;5041584;28;20047;-66
2021/12/21 07:42:25;;;;;;;2.35;1.90;;;15.20;41.80;14.10;102343.00;;;;5041797;28;20048;-66
2021/12/21 07:45:11;;;;;;;2.55;2.25;;;15.10;41.00;14.10;102349.00;;;;5040963;28;20128;-66
2021/12/21 07:47:58;;;;;;;3.13;2.22;;;15.20;41.10;14.10;102353.00;;;;5041285;28;20470;-66
2021/12/21 07:50:46;;;;;;;2.03;1.83;;;15.20;41.00;14.10;102363.00;;;;5044935;28;20057;-66
2021/12/21 07:53:33;;;;;;;2.30;2.10;;;15.20;41.00;14.10;102356.00;;;;5028590;28;20041;-66
2021/12/21 07:56:19;;;;;;;2.72;1.90;;;15.10;41.70;14.10;102353.00;;;;5029582;28;20045;-67
2021/12/21 07:59:05;;;;;;;2.55;2.10;;;15.20;41.00;14.10;102358.00;;;;5026677;28;20406;-66
2021/12/21 08:01:52;;;;;;;2.33;2.13;;;15.20;41.00;14.10;102363.00;;;;5044456;28;20399;-66
2021/12/21 08:04:43;;;;;;;2.73;2.53;;;15.20;41.10;14.10;102360.00;;;;5022034;28;20060;-66
2021/12/21 08:07:34;;;;;;;1.95;1.85;;;15.10;41.00;14.10;102356.00;;;;5028109;28;20283;-66
2021/12/21 08:10:29;;;;;;;3.50;3.10;;;15.10;41.00;14.10;102364.00;;;;5045238;28;20041;-66
2021/12/21 08:13:16;;;;;;;2.42;2.22;;;15.20;41.00;14.10;102367.00;;;;5031059;28;20041;-67
2021/12/21 08:16:02;;;;;;;3.45;1.83;;;15.20;41.00;14.10;102361.00;;;;5028928;28;20544;-66
2021/12/21 08:18:48;;;;;;;2.97;2.33;;;15.20;41.00;14.10;102353.00;;;;5016014;28;20052;-66
2021/12/21 08:21:35;;;;;;;2.60;2.40;;;15.20;41.00;14.10;102353.00;;;;5044256;28;20513;-66
2021/12/21 08:24:21;;;;;;;2.60;2.40;;;15.20;41.00;14.10;102352.00;;;;5025962;28;20037;-66
2021/12/21 08:27:07;;;;;;;2.83;2.20;;;15.20;40.90;14.10;102356.00;;;;5021252;28;20459;-67
2021/12/21 08:29:53;;;;;;;2.70;2.10;;;15.20;41.00;14.10;102353.00;;;;5040118;28;20041;-66
2021/12/21 08:32:39;;;;;;;2.75;2.40;;;15.20;40.90;14.10;102349.00;;;;5025449;28;20052;-66
2021/12/21 08:35:26;;;;;;;2.20;2.00;;;15.20;40.90;14.10;102357.00;;;;5044085;28;20414;-66
2021/12/21 08:38:15;;;;;;;3.17;2.03;;;15.20;40.90;14.10;102346.00;;;;5031794;28;20045;-67
2021/12/21 08:41:02;;;;;;;2.42;2.03;;;15.20;40.90;14.10;102357.00;;;;5029629;28;20488;-67
2021/12/21 08:43:48;;;;;;;4.90;2.22;;;15.20;40.90;14.10;102358.00;;;;5021006;28;20144;-66
2021/12/21 08:46:35;;;;;;;2.47;2.10;;;15.20;40.90;14.10;102360.00;;;;5022145;28;20712;-67
2021/12/21 08:49:21;;;;;;;2.70;2.30;;;15.20;40.90;14.10;102366.00;;;;5046059;28;20037;-67
2021/12/21 08:52:07;;;;;;;2.65;2.22;;;15.20;40.80;14.10;102362.00;;;;5045176;28;20470;-66
2021/12/21 08:54:53;;;;;;;2.42;2.03;;;15.20;40.80;14.10;102354.00;;;;5049629;28;20029;-67
2021/12/21 08:57:39;;;;;;;2.20;1.90;;;15.20;40.80;14.10;102364.00;;;;5044912;28;20059;-67
2021/12/21 09:00:26;;;;;;;6.15;2.20;;;15.20;40.80;14.10;102363.00;;;;5017156;28;20060;-67
2021/12/21 09:03:12;;;;;;;2.88;2.10;;;15.20;40.80;14.10;102355.00;;;;5031669;28;20466;-67
2021/12/21 09:05:58;;;;;;;2.13;1.92;;;15.20;40.80;14.10;102357.00;;;;5022489;28;20145;-67
2021/12/21 09:08:45;;;;;;;3.72;2.10;;;15.20;40.80;14.10;102371.00;;;;5032220;28;20045;-67
2021/12/21 09:11:35;;;;;;;2.08;1.77;;;15.20;40.80;14.10;102364.00;;;;5045566;28;20044;-67
2021/12/21 09:14:22;;;;;;;2.72;1.98;;;15.20;40.80;14.10;102370.00;;;;5029604;28;20372;-67
2021/12/21 09:17:08;;;;;;;2.50;2.13;;;15.20;40.80;14.10;102385.00;;;;5047110;28;20047;-67
2021/12/21 09:19:55;;;;;;;3.30;1.95;;;15.20;40.90;14.10;102378.00;;;;5042563;28;20106;-67
2021/12/21 09:22:42;;;;;;;3.75;2.20;;;15.20;40.90;14.10;102377.00;;;;5028073;28;20037;-67
2021/12/21 09:25:28;;;;;;;2.22;2.03;;;15.20;40.80;14.10;102378.00;;;;5024446;28;20048;-67
2021/12/21 09:28:14;;;;;;;4.80;2.10;;;15.10;40.70;14.10;102386.00;;;;5037304;28;20926;-67
2021/12/21 09:31:00;;;;;;;2.42;2.08;;;15.20;40.80;14.10;102377.00;;;;5036846;28;20132;-67
2021/12/21 09:33:47;;;;;;;2.28;2.05;;;15.20;40.80;14.10;102382.00;;;;5017141;28;20044;-67
2021/12/21 09:36:34;;;;;;;2.55;2.10;;;15.10;40.70;14.10;102375.00;;;;5029037;28;20151;-67
2021/12/21 09:39:28;;;;;;;2.25;2.00;;;15.20;41.50;14.10;102372.00;;;;5030337;28;20048;-67
2021/12/21 09:42:18;;;;;;;3.05;1.88;;;15.20;40.80;14.10;102370.00;;;;5027642;28;20060;-67
2021/12/21 09:45:05;;;;;;;3.90;2.05;;;15.20;40.70;14.10;102369.00;;;;5021716;28;20045;-67
2021/12/21 09:47:51;;;;;;;2.60;2.40;;;15.20;40.70;14.10;102381.00;;;;5047022;28;20052;-67
2021/12/21 09:50:38;;;;;;;2.42;1.85;;;15.20;40.80;14.10;102370.00;;;;5035142;28;20485;-67
2021/12/21 09:53:24;;;;;;;2.60;2.10;;;15.20;40.70;14.10;102368.00;;;;5025331;28;20048;-67
2021/12/21 09:56:10;;;;;;;2.42;2.20;;;15.20;40.70;14.10;102373.00;;;;5030451;28;20497;-67
2021/12/21 09:58:56;;;;;;;2.05;1.85;;;15.10;40.60;14.10;102370.00;;;;5045210;28;20048;-66
2021/12/21 10:01:42;;;;;;;2.55;2.03;;;15.20;40.70;14.10;102368.00;;;;5020289;28;20102;-67
2021/12/21 10:04:29;;;;;;;2.22;2.03;;;15.10;40.60;14.10;102360.00;;;;5016466;28;20327;-66
2021/12/21 10:07:16;;;;;;;2.30;2.10;;;15.10;40.70;14.10;102350.00;;;;5028597;28;20064;-66
2021/12/21 10:10:08;;;;;;;2.08;1.80;;;15.10;40.60;14.10;102348.00;;;;5018798;28;20036;-66
2021/12/21 10:12:54;;;;;;;2.17;1.90;;;15.10;40.60;14.10;102357.00;;;;5045786;28;20045;-66
2021/12/21 10:15:45;;;;;;;3.17;1.90;;;15.20;40.70;14.10;102354.00;;;;5031681;28;20410;-66
2021/12/21 10:18:41;;;;;;;2.80;2.35;;;15.10;40.60;14.10;102353.00;;;;5026985;28;20045;-66
2021/12/21 10:21:28;;;;;;;2.28;2.08;;;15.10;40.60;14.00;102346.00;;;;5029103;28;20253;-66
2021/12/21 10:24:27;;;;;;;2.30;2.10;;;15.10;40.60;14.10;102349.00;;;;5017009;28;20052;-66
2021/12/21 10:27:14;;;;;;;2.67;1.90;;;15.10;40.60;14.00;102352.00;;;;5045695;28;20052;-66
2021/12/21 10:30:00;;;;;;;1.80;1.70;;;15.10;40.70;14.00;102343.00;;;;5043555;28;20037;-66
2021/12/21 10:32:53;;;;;;;2.00;1.80;;;15.10;40.70;14.00;102344.00;;;;5044911;28;20106;-66
2021/12/21 10:35:39;;;;;;;1.85;1.75;;;15.10;40.60;14.10;102346.00;;;;5030035;28;20048;-66
2021/12/21 10:38:51;;;;;;;1.80;1.63;;;15.10;41.30;14.00;102349.00;;;;5044506;28;20128;-66
2021/12/21 10:41:41;;;;;;;1.77;1.67;;;15.10;40.60;14.10;102343.00;;;;5028697;28;20123;-66
2021/12/21 10:44:28;;;;;;;2.20;2.00;;;15.20;40.70;14.10;102340.00;;;;5030816;28;20033;-67
2021/12/21 10:47:14;;;;;;;2.17;1.83;;;15.10;40.60;14.10;102342.00;;;;5027874;28;20029;-67
2021/12/21 10:50:06;;;;;;;2.10;1.75;;;15.10;40.60;14.10;102330.00;;;;5044037;28;20053;-66
2021/12/21 10:52:54;;;;;;;1.58;1.48;;;15.10;40.60;14.10;102336.00;;;;5031174;28;20072;-67
2021/12/21 10:55:40;;;;;;;1.63;1.42;;;15.10;40.60;14.10;102324.00;;;;5043971;28;20044;-67
2021/12/21 10:58:28;;;;;;;2.28;1.98;;;15.20;40.70;14.10;102316.00;;;;5043068;28;20052;-67
2021/12/21 11:01:25;;;;;;;2.10;1.90;;;15.20;40.70;14.10;102328.00;;;;5034458;28;20099;-66
2021/12/21 11:04:13;;;;;;;1.67;1.58;;;15.10;40.60;14.10;102326.00;;;;5016571;28;20033;-67
2021/12/21 11:07:32;;;;;;;2.08;1.88;;;15.10;40.60;14.10;102321.00;;;;5028263;28;20319;-67
2021/12/21 11:10:29;;;;;;;1.85;1.75;;;15.20;40.70;14.00;102307.00;;;;5041949;28;20037;-66
2021/12/21 11:13:15;;;;;;;2.95;1.85;;;15.20;40.70;14.10;102300.00;;;;5045742;28;20075;-67
2021/12/21 11:16:06;;;;;;;2.58;2.10;;;15.20;40.70;14.10;102308.00;;;;5020246;28;20120;-67
2021/12/21 11:18:52;;;;;;;2.80;1.77;;;15.20;40.70;14.10;102302.00;;;;5044519;28;20116;-67
2021/12/21 11:21:39;;;;;;;2.38;2.15;;;15.20;40.70;14.10;102314.00;;;;5016306;28;20044;-67
2021/12/21 11:24:26;;;;;;;1.70;1.60;;;15.10;40.70;14.10;102315.00;;;;5027597;28;20043;-67
2021/12/21 11:27:13;;;;;;;3.17;2.03;;;15.20;40.70;14.00;102313.00;;;;5029692;28;20292;-67
2021/12/21 11:30:03;;;;;;;1.90;1.75;;;15.20;40.70;14.10;102321.00;;;;5020624;28;20091;-67
2021/12/21 11:32:51;;;;;;;2.05;1.90;;;15.20;40.70;14.10;102312.00;;;;5028131;28;20474;-67
2021/12/21 11:38:24;;;;;;;2.00;1.75;;;15.20;40.70;14.10;102306.00;;;;5011469;28;20037;-67
2021/12/21 11:41:10;;;;;;;2.40;1.95;;;15.20;40.70;14.10;102297.00;;;;5041779;28;20090;-67
2021/12/21 11:44:30;;;;;;;2.33;2.13;;;15.10;40.60;14.10;102309.00;;;;5015764;28;20115;-67
2021/12/21 11:47:21;;;;;;;1.88;1.63;;;15.20;40.70;14.10;102300.00;;;;5042214;28;20437;-67
2021/12/21 11:50:09;;;;;;;2.15;1.70;;;15.20;40.70;14.10;102296.00;;;;5018315;28;20540;-67
2021/12/21 11:53:01;;;;;;;2.45;1.90;;;15.20;40.70;14.10;102296.00;;;;5015886;28;20124;-67
2021/12/21 11:55:49;;;;;;;1.70;1.60;;;15.20;40.70;14.10;102294.00;;;;5015812;28;20182;-67
2021/12/21 11:58:40;;;;;;;3.75;1.80;;;15.20;40.70;14.10;102292.00;;;;5031835;28;20560;-67
2021/12/21 12:01:27;;;;;;;2.78;2.22;;;15.20;40.70;14.10;102289.00;;;;5015773;28;20423;-67
2021/12/21 12:04:14;;;;;;;2.13;1.93;;;15.20;40.70;14.10;102285.00;;;;5028077;28;20078;-67
2021/12/21 12:07:00;;;;;;;2.72;2.08;;;15.20;40.70;14.10;102298.00;;;;5045666;28;20063;-67
2021/12/21 12:09:47;;;;;;;2.05;1.85;;;15.20;41.10;14.10;102287.00;;;;5033244;28;20088;-67
2021/12/21 12:12:33;;;;;;;2.20;2.00;;;15.20;40.70;14.10;102281.00;;;;5021283;28;20037;-67
2021/12/21 12:15:19;;;;;;;2.00;1.80;;;15.20;40.70;14.10;102280.00;;;;5032854;28;20043;-67
2021/12/21 12:18:06;;;;;;;2.33;2.00;;;15.20;40.70;14.10;102280.00;;;;5049383;28;20041;-67
2021/12/21 12:20:52;;;;;;;2.47;2.13;;;15.20;40.70;14.10;102283.00;;;;5048346;28;20052;-67
2021/12/21 12:24:07;;;;;;;1.85;1.75;;;15.20;40.70;14.10;102275.00;;;;5033452;28;20087;-67
2021/12/21 12:27:06;;;;;;;2.10;1.90;;;15.10;40.70;14.10;102264.00;;;;5014547;28;20036;-67
2021/12/21 12:29:58;;;;;;;1.80;1.70;;;15.20;40.70;14.10;102264.00;;;;5029028;28;20099;-67
2021/12/21 12:33:02;;;;;;;1.83;1.63;;;15.20;40.70;14.10;102260.00;;;;5019889;28;20134;-67
2021/12/21 12:35:48;;;;;;;2.20;1.65;;;15.20;40.70;14.10;102259.00;;;;5021569;28;20043;-66
2021/12/21 12:38:43;;;;;;;2.33;2.08;;;15.20;40.70;14.10;102255.00;;;;5048273;28;20044;-67
2021/12/21 12:41:29;;;;;;;2.70;2.05;;;15.20;40.70;14.10;102261.00;;;;5036599;28;20075;-67
2021/12/21 12:44:24;;;;;;;2.20;1.90;;;15.20;40.70;14.10;102271.00;;;;5046479;28;20485;-67
2021/12/21 12:47:13;;;;;;;2.05;1.85;;;15.20;40.70;14.10;102272.00;;;;5045654;28;20041;-67
2021/12/21 12:49:59;;;;;;;2.83;2.08;;;15.20;40.70;14.10;102270.00;;;;5034640;28;20052;-67
2021/12/21 12:52:54;;;;;;;2.08;1.80;;;15.20;40.70;14.10;102266.00;;;;5048654;28;20158;-67
2021/12/21 12:55:54;;;;;;;2.10;1.85;;;15.20;40.70;14.10;102260.00;;;;5014816;28;20041;-67
2021/12/21 12:59:04;;;;;;;2.40;2.08;;;15.20;40.70;14.10;102260.00;;;;5048615;28;20400;-67
2021/12/21 13:01:52;;;;;;;2.30;1.92;;;15.20;40.70;14.10;102261.00;;;;5044435;28;20043;-67
2021/12/21 13:04:38;;;;;;;2.92;2.10;;;15.20;40.70;14.10;102264.00;;;;5048692;28;20072;-67
2021/12/21 13:07:26;;;;;;;2.53;1.90;;;15.20;40.70;14.10;102268.00;;;;5048448;28;20071;-67
2021/12/21 13:10:13;;;;;;;2.53;2.28;;;15.20;40.70;14.10;102266.00;;;;5034220;28;20055;-66
2021/12/21 13:12:59;;;;;;;2.55;2.30;;;15.20;40.70;14.10;102253.00;;;;5045330;28;20059;-67
2021/12/21 13:15:50;;;;;;;2.45;1.88;;;15.20;40.70;14.10;102253.00;;;;5042040;28;20056;-66
2021/12/21 13:18:54;;;;;;;3.28;1.98;;;15.20;40.70;14.10;102244.00;;;;5031721;28;20045;-67
2021/12/21 13:21:57;;;;;;;2.17;1.88;;;15.20;40.70;14.10;102245.00;;;;5033688;28;20124;-66
2021/12/21 13:24:46;;;;;;;2.35;1.98;;;15.20;40.70;14.10;102239.00;;;;5028865;28;20068;-67
2021/12/21 13:27:33;;;;;;;2.70;2.28;;;15.20;40.70;14.10;102252.00;;;;5032251;28;20605;-67
2021/12/21 13:30:19;;;;;;;2.95;2.58;;;15.20;40.80;14.10;102244.00;;;;5047256;28;20116;-67
2021/12/21 13:33:06;;;;;;;2.78;2.58;;;15.20;40.70;14.10;102244.00;;;;5046692;28;20049;-67